createdAt,value
2022-08-12T00:03:02.159Z,5.03
2022-08-12T00:08:16.142Z,5.68
2022-08-12T00:13:26.785Z,6.32
2022-08-12T00:18:37.502Z,3.50
2022-08-12T00:23:49.615Z,5.53
2022-08-12T00:29:01.014Z,4.18
2022-08-12T00:34:11.802Z,5.47
2022-08-12T00:39:24.313Z,7.38
2022-08-12T00:44:20.519Z,5.18
2022-08-12T00:49:16.249Z,4.43
2022-08-12T00:54:11.233Z,6.50
2022-08-12T00:59:05.350Z,7.75
2022-08-12T01:04:18.751Z,4.78
2022-08-12T01:09:33.908Z,4.97
2022-08-12T01:14:30.194Z,5.43
2022-08-12T01:19:26.258Z,4.78
2022-08-12T01:24:48.795Z,5.47
2022-08-12T01:29:45.066Z,6.20
2022-08-12T01:34:40.669Z,6.70
2022-08-12T01:40:35.318Z,5.95
2022-08-12T01:44:55.544Z,6.32
2022-08-12T01:50:06.622Z,7.15
2022-08-12T01:55:02.306Z,4.80
2022-08-12T02:00:05.232Z,5.00
2022-08-12T02:05:33.190Z,4.30
2022-08-12T02:10:56.631Z,3.58
2022-08-12T02:15:57.655Z,5.15
2022-08-12T02:20:59.874Z,4.78
2022-08-12T02:25:57.274Z,3.75
2022-08-12T02:30:51.183Z,5.88
2022-08-12T02:35:45.542Z,4.65
2022-08-12T02:40:41.365Z,4.10
2022-08-12T02:45:54.251Z,4.65
2022-08-12T02:50:54.341Z,5.00
2022-08-12T02:55:48.168Z,5.63
2022-08-12T03:00:43.953Z,7.30
2022-08-12T03:05:44.730Z,7.57
2022-08-12T03:10:44.127Z,5.40
2022-08-12T03:15:45.915Z,5.68
2022-08-12T03:20:41.110Z,5.05
2022-08-12T03:25:48.264Z,3.97
2022-08-12T03:30:52.424Z,8.35
2022-08-12T03:35:50.909Z,10.13
2022-08-12T03:41:15.000Z,11.35
2022-08-12T03:46:31.561Z,5.60
2022-08-12T03:51:42.151Z,8.32
2022-08-12T03:57:01.542Z,6.40
2022-08-12T04:01:58.629Z,6.43
2022-08-12T04:06:52.591Z,7.25
2022-08-12T04:12:04.450Z,8.45
2022-08-12T04:16:59.932Z,10.13
2022-08-12T04:22:01.367Z,5.90
2022-08-12T04:26:56.697Z,6.15
2022-08-12T04:31:50.763Z,7.63
2022-08-12T04:36:46.006Z,5.90
2022-08-12T04:41:56.207Z,5.88
2022-08-12T04:46:52.243Z,6.22
2022-08-12T04:51:56.781Z,4.82
2022-08-12T04:57:04.366Z,4.85
2022-08-12T05:02:03.546Z,3.72
2022-08-12T05:07:09.223Z,4.50
2022-08-12T05:16:57.108Z,3.60
2022-08-12T05:21:53.154Z,3.15
2022-08-12T05:26:48.535Z,3.67
2022-08-12T05:31:48.211Z,4.57
2022-08-12T05:36:44.019Z,5.68
2022-08-12T05:41:38.110Z,4.85
2022-08-12T05:46:34.359Z,5.57
2022-08-12T05:51:40.391Z,4.75
2022-08-12T05:56:37.162Z,3.92
2022-08-12T06:02:09.458Z,5.47
2022-08-12T06:06:51.433Z,4.30
2022-08-12T06:12:04.144Z,3.85
2022-08-12T06:17:03.749Z,3.63
2022-08-12T06:21:57.256Z,4.22
2022-08-12T06:26:51.021Z,3.90
2022-08-12T06:31:46.406Z,3.22
2022-08-12T06:36:43.310Z,9.68
2022-08-12T06:42:22.701Z,3.53
2022-08-12T06:47:08.236Z,5.15
2022-08-12T06:52:04.531Z,3.78
2022-08-12T06:57:05.196Z,4.32
2022-08-12T07:02:13.948Z,4.25
2022-08-12T07:07:12.796Z,4.35
2022-08-12T07:12:06.480Z,4.47
2022-08-12T07:17:02.427Z,4.13
2022-08-12T07:22:02.283Z,6.90
2022-08-12T07:26:58.203Z,5.22
2022-08-12T07:31:51.747Z,5.78
2022-08-12T07:36:45.906Z,4.72
2022-08-12T07:41:41.421Z,4.65
2022-08-12T07:46:39.013Z,5.97
2022-08-12T07:51:43.998Z,4.38
2022-08-12T07:56:38.455Z,5.85
2022-08-12T08:01:35.334Z,5.18
2022-08-12T08:06:33.184Z,5.75
2022-08-12T08:11:53.720Z,5.32
2022-08-12T08:22:06.561Z,9.88
2022-08-12T08:27:01.262Z,6.95
2022-08-12T08:31:58.535Z,5.80
2022-08-12T08:36:52.180Z,4.40
2022-08-12T08:42:15.319Z,4.47
2022-08-12T08:47:14.345Z,3.80
2022-08-12T08:52:10.172Z,5.38
2022-08-12T08:57:08.329Z,4.20
2022-08-12T09:02:02.583Z,3.47
2022-08-12T09:07:00.387Z,4.13
2022-08-12T09:12:32.197Z,4.00
2022-08-12T09:17:26.978Z,3.80
2022-08-12T09:22:35.979Z,4.53
2022-08-12T09:28:24.901Z,4.43
2022-08-12T09:33:03.971Z,5.53
2022-08-12T09:38:01.392Z,4.90
2022-08-12T09:43:18.729Z,6.15
2022-08-12T09:48:20.278Z,4.65
2022-08-12T09:53:29.105Z,4.93
2022-08-12T09:58:57.280Z,5.05
2022-08-12T10:04:03.681Z,6.53
2022-08-12T10:08:58.446Z,3.80
2022-08-12T10:13:56.994Z,4.53
2022-08-12T10:18:53.970Z,6.30
2022-08-12T10:23:55.138Z,5.35
2022-08-12T10:30:01.921Z,3.97
2022-08-12T10:34:26.528Z,4.60
2022-08-12T10:40:01.358Z,3.17
2022-08-12T10:44:38.836Z,5.78
2022-08-12T10:50:03.592Z,4.28
2022-08-12T10:54:51.086Z,3.42
2022-08-12T11:00:31.927Z,5.10
2022-08-12T11:07:06.569Z,7.35
2022-08-12T11:10:14.551Z,7.32
2022-08-12T11:15:18.873Z,4.00
2022-08-12T11:20:14.941Z,5.15
2022-08-12T11:25:11.490Z,4.43
2022-08-12T11:30:11.749Z,4.05
2022-08-12T11:35:27.376Z,3.30
2022-08-12T11:40:24.742Z,6.57
2022-08-12T11:45:20.809Z,3.78
2022-08-12T11:50:19.193Z,2.80
2022-08-12T11:55:14.802Z,4.25
2022-08-12T12:05:28.582Z,3.05
2022-08-12T12:10:34.873Z,6.32
2022-08-12T12:15:41.057Z,3.65
2022-08-12T12:20:36.920Z,5.15
2022-08-12T12:25:59.353Z,2.83
2022-08-12T12:30:54.942Z,4.55
2022-08-12T12:36:19.689Z,5.25
2022-08-12T12:41:16.406Z,3.40
2022-08-12T12:46:10.937Z,4.78
2022-08-12T12:57:17.738Z,4.57
2022-08-12T13:02:42.249Z,7.20
2022-08-12T13:07:54.454Z,3.90
2022-08-12T13:12:50.877Z,2.92
2022-08-12T13:18:02.334Z,3.33
2022-08-12T13:22:58.826Z,4.10
2022-08-12T13:27:56.001Z,3.42
2022-08-12T13:32:56.722Z,3.33
2022-08-12T13:37:54.818Z,5.22
2022-08-12T13:42:57.871Z,6.45
2022-08-12T13:47:58.110Z,4.72
2022-08-12T13:52:51.861Z,5.53
2022-08-12T13:57:47.180Z,4.75
2022-08-12T14:02:42.513Z,5.25
2022-08-12T14:07:53.431Z,3.67
2022-08-12T14:12:54.094Z,3.60
2022-08-12T14:17:47.642Z,7.95
2022-08-12T14:22:56.796Z,4.45
2022-08-12T14:28:03.380Z,5.00
2022-08-12T14:33:03.420Z,4.68
2022-08-12T14:38:02.705Z,4.78
2022-08-12T14:43:06.164Z,5.47
2022-08-12T14:47:59.920Z,4.22
2022-08-12T14:58:11.229Z,6.95
2022-08-12T15:03:06.316Z,9.07
2022-08-12T15:08:05.057Z,4.60
2022-08-12T15:13:00.270Z,4.57
2022-08-12T15:18:08.748Z,6.05
2022-08-12T15:23:18.031Z,4.35
2022-08-12T15:28:23.821Z,4.35
2022-08-12T15:33:45.183Z,4.90
2022-08-12T15:38:40.015Z,6.00
2022-08-12T15:44:16.878Z,4.40
2022-08-12T15:54:04.910Z,4.80
2022-08-12T15:59:20.379Z,4.63
2022-08-12T16:04:33.942Z,6.72
2022-08-12T16:09:56.205Z,7.13
2022-08-12T16:14:47.463Z,6.75
2022-08-12T16:20:03.600Z,7.90
2022-08-12T16:24:58.141Z,8.77
2022-08-12T16:29:57.679Z,7.82
2022-08-12T16:34:56.536Z,7.22
2022-08-12T16:40:01.819Z,12.25
2022-08-12T16:45:03.598Z,9.05
2022-08-12T16:49:59.062Z,8.93
2022-08-12T16:54:53.223Z,11.45
2022-08-12T16:59:54.122Z,9.93
2022-08-12T17:04:52.740Z,11.57
2022-08-12T17:09:50.047Z,13.18
2022-08-12T17:14:43.745Z,12.50
2022-08-12T17:20:35.157Z,11.95
2022-08-12T17:25:03.763Z,16.67
2022-08-12T17:30:06.284Z,14.85
2022-08-12T17:35:18.631Z,11.98
2022-08-12T17:40:20.965Z,12.00
2022-08-12T17:45:29.728Z,11.93
2022-08-12T17:50:25.846Z,16.27
2022-08-12T17:55:40.751Z,14.60
2022-08-12T18:00:41.970Z,13.95
2022-08-12T18:05:55.301Z,14.02
2022-08-12T18:12:03.095Z,17.65
2022-08-12T18:16:31.234Z,13.82
2022-08-12T18:21:25.815Z,14.55
2022-08-12T18:26:23.875Z,14.88
2022-08-12T18:31:23.026Z,14.20
2022-08-12T18:36:22.707Z,13.07
2022-08-12T18:41:33.742Z,17.35
2022-08-12T18:47:02.446Z,12.38
2022-08-12T18:52:04.279Z,11.30
2022-08-12T18:57:00.836Z,11.57
2022-08-12T19:02:19.784Z,12.32
2022-08-12T19:07:19.766Z,11.82
2022-08-12T19:12:30.983Z,11.55
2022-08-12T19:17:56.830Z,11.10
2022-08-12T19:22:42.330Z,10.55
2022-08-12T19:27:55.719Z,10.88
2022-08-12T19:33:00.253Z,13.30
2022-08-12T19:38:03.869Z,14.15
2022-08-12T19:43:01.511Z,11.48
2022-08-12T19:47:59.949Z,11.52
2022-08-12T19:52:54.956Z,11.38
2022-08-12T19:58:02.376Z,10.05
2022-08-12T20:03:00.792Z,13.25
2022-08-12T20:07:59.526Z,10.15
2022-08-12T20:13:19.183Z,12.23
2022-08-12T20:18:43.690Z,10.45
2022-08-12T20:23:50.719Z,12.38
2022-08-12T20:28:49.905Z,12.82
2022-08-12T20:33:56.437Z,9.63
2022-08-12T20:38:51.962Z,12.48
2022-08-12T20:43:53.346Z,11.05
2022-08-12T20:48:55.085Z,13.50
2022-08-12T20:53:58.851Z,11.32
2022-08-12T20:58:56.701Z,11.02
2022-08-12T21:04:09.535Z,10.10
2022-08-12T21:09:05.364Z,11.73
2022-08-12T21:14:03.439Z,10.40
2022-08-12T21:18:57.547Z,12.05
2022-08-12T21:23:56.260Z,12.55
2022-08-12T21:28:58.217Z,11.50
2022-08-12T21:34:07.292Z,10.55
2022-08-12T21:39:19.181Z,15.50
2022-08-12T21:44:23.916Z,11.10
2022-08-12T21:49:54.119Z,11.13
2022-08-12T21:54:50.531Z,11.43
2022-08-12T21:59:49.954Z,11.27
2022-08-12T22:05:06.495Z,10.88
2022-08-12T22:10:01.392Z,12.68
2022-08-12T22:14:56.519Z,11.63
2022-08-12T22:19:54.497Z,14.80
2022-08-12T22:24:50.628Z,10.90
2022-08-12T22:30:16.163Z,12.77
2022-08-12T22:35:56.341Z,11.88
2022-08-12T22:40:49.759Z,11.15
2022-08-12T22:46:01.191Z,12.88
2022-08-12T22:50:59.401Z,11.23
2022-08-12T22:56:06.117Z,11.60
2022-08-12T23:01:02.574Z,11.55
2022-08-12T23:06:10.195Z,10.98
2022-08-12T23:11:08.481Z,11.50
2022-08-12T23:16:04.210Z,12.43
2022-08-12T23:20:59.224Z,12.55
2022-08-12T23:25:55.160Z,11.35
2022-08-12T23:30:49.155Z,13.63
2022-08-12T23:35:45.712Z,12.45
2022-08-12T23:40:48.577Z,11.15
2022-08-12T23:46:00.544Z,11.80
2022-08-12T23:50:58.110Z,11.32
2022-08-12T23:55:57.071Z,12.32
